sensor_id;sensor_type;location;lat;lon;timestamp;temperature;humidity
38854;DHT22;24606;51.992;4.198;2024-03-07T00:04:44;16.10;99.90
38854;DHT22;24606;51.992;4.198;2024-03-07T00:09:46;16.10;99.90
38854;DHT22;24606;51.992;4.198;2024-03-07T00:14:49;16.00;99.90
38854;DHT22;24606;51.992;4.198;2024-03-07T00:19:51;16.00;99.90
38854;DHT22;24606;51.992;4.198;2024-03-07T00:24:54;15.90;99.90
38854;DHT22;24606;51.992;4.198;2024-03-07T00:29:58;16.00;99.90
38854;DHT22;24606;51.992;4.198;2024-03-07T00:35:00;15.90;99.90
38854;DHT22;24606;51.992;4.198;2024-03-07T00:40:04;15.90;99.90
38854;DHT22;24606;51.992;4.198;2024-03-07T00:45:08;15.80;99.90
38854;DHT22;24606;51.992;4.198;2024-03-07T00:50:10;15.70;99.90
38854;DHT22;24606;51.992;4.198;2024-03-07T00:55:12;15.70;99.90
38854;DHT22;24606;51.992;4.198;2024-03-07T01:00:17;15.70;99.90
38854;DHT22;24606;51.992;4.198;2024-03-07T01:05:22;15.70;99.90
38854;DHT22;24606;51.992;4.198;2024-03-07T01:10:24;15.70;99.90
38854;DHT22;24606;51.992;4.198;2024-03-07T01:15:28;15.60;99.90
38854;DHT22;24606;51.992;4.198;2024-03-07T01:20:30;15.60;99.90
38854;DHT22;24606;51.992;4.198;2024-03-07T01:25:32;15.60;99.90
38854;DHT22;24606;51.992;4.198;2024-03-07T01:30:35;15.60;99.90
38854;DHT22;24606;51.992;4.198;2024-03-07T01:35:38;15.60;99.90
38854;DHT22;24606;51.992;4.198;2024-03-07T01:40:40;15.60;99.90
38854;DHT22;24606;51.992;4.198;2024-03-07T01:45:47;15.60;99.90
38854;DHT22;24606;51.992;4.198;2024-03-07T01:50:50;15.60;99.90
38854;DHT22;24606;51.992;4.198;2024-03-07T01:55:52;15.60;99.90
38854;DHT22;24606;51.992;4.198;2024-03-07T02:00:59;15.60;99.90
38854;DHT22;24606;51.992;4.198;2024-03-07T02:06:07;15.60;99.90
38854;DHT22;24606;51.992;4.198;2024-03-07T02:11:09;15.70;99.90
38854;DHT22;24606;51.992;4.198;2024-03-07T02:16:12;15.70;99.90
38854;DHT22;24606;51.992;4.198;2024-03-07T02:21:16;15.70;99.90
38854;DHT22;24606;51.992;4.198;2024-03-07T02:26:22;15.50;99.90
38854;DHT22;24606;51.992;4.198;2024-03-07T02:31:24;15.50;99.90
38854;DHT22;24606;51.992;4.198;2024-03-07T02:36:37;15.50;99.90
38854;DHT22;24606;51.992;4.198;2024-03-07T02:41:39;15.40;99.90
38854;DHT22;24606;51.992;4.198;2024-03-07T02:46:45;15.40;99.90
38854;DHT22;24606;51.992;4.198;2024-03-07T02:51:49;15.50;99.90
38854;DHT22;24606;51.992;4.198;2024-03-07T02:56:55;15.50;99.90
38854;DHT22;24606;51.992;4.198;2024-03-07T03:01:57;15.50;99.90
38854;DHT22;24606;51.992;4.198;2024-03-07T03:07:01;15.40;99.90
38854;DHT22;24606;51.992;4.198;2024-03-07T03:12:03;15.20;99.90
38854;DHT22;24606;51.992;4.198;2024-03-07T03:17:05;15.30;99.90
38854;DHT22;24606;51.992;4.198;2024-03-07T03:22:14;15.30;99.90
38854;DHT22;24606;51.992;4.198;2024-03-07T03:27:17;15.40;99.90
38854;DHT22;24606;51.992;4.198;2024-03-07T03:32:18;15.40;99.90
38854;DHT22;24606;51.992;4.198;2024-03-07T03:37:22;15.30;99.90
38854;DHT22;24606;51.992;4.198;2024-03-07T03:42:24;15.20;99.90
38854;DHT22;24606;51.992;4.198;2024-03-07T03:47:26;15.30;99.90
38854;DHT22;24606;51.992;4.198;2024-03-07T03:52:30;15.20;99.90
38854;DHT22;24606;51.992;4.198;2024-03-07T04:15:29;15.30;99.90
38854;DHT22;24606;51.992;4.198;2024-03-07T04:20:33;15.30;99.90
38854;DHT22;24606;51.992;4.198;2024-03-07T04:25:35;15.20;99.90
38854;DHT22;24606;51.992;4.198;2024-03-07T04:30:38;15.10;99.90
38854;DHT22;24606;51.992;4.198;2024-03-07T04:35:40;15.10;99.90
38854;DHT22;24606;51.992;4.198;2024-03-07T04:40:43;15.10;99.90
38854;DHT22;24606;51.992;4.198;2024-03-07T04:45:46;15.10;99.90
38854;DHT22;24606;51.992;4.198;2024-03-07T04:50:48;15.00;99.90
38854;DHT22;24606;51.992;4.198;2024-03-07T04:55:54;15.00;99.90
38854;DHT22;24606;51.992;4.198;2024-03-07T05:00:58;15.00;99.90
38854;DHT22;24606;51.992;4.198;2024-03-07T05:06:05;15.10;99.90
38854;DHT22;24606;51.992;4.198;2024-03-07T05:11:07;15.10;99.90
38854;DHT22;24606;51.992;4.198;2024-03-07T05:16:10;15.20;99.90
38854;DHT22;24606;51.992;4.198;2024-03-07T05:21:12;15.20;99.90
38854;DHT22;24606;51.992;4.198;2024-03-07T05:26:32;15.20;99.90
38854;DHT22;24606;51.992;4.198;2024-03-07T05:31:41;15.30;99.90
38854;DHT22;24606;51.992;4.198;2024-03-07T05:36:47;15.40;99.90
38854;DHT22;24606;51.992;4.198;2024-03-07T05:41:49;15.40;99.90
38854;DHT22;24606;51.992;4.198;2024-03-07T05:46:52;15.30;99.90
38854;DHT22;24606;51.992;4.198;2024-03-07T05:51:54;15.40;99.90
38854;DHT22;24606;51.992;4.198;2024-03-07T05:56:58;15.40;99.90
38854;DHT22;24606;51.992;4.198;2024-03-07T06:02:02;15.40;99.90
38854;DHT22;24606;51.992;4.198;2024-03-07T06:07:05;15.70;99.90
38854;DHT22;24606;51.992;4.198;2024-03-07T06:12:07;15.60;99.90
38854;DHT22;24606;51.992;4.198;2024-03-07T06:17:12;15.80;99.90
38854;DHT22;24606;51.992;4.198;2024-03-07T06:22:14;15.80;99.90
38854;DHT22;24606;51.992;4.198;2024-03-07T06:27:17;15.70;99.90
38854;DHT22;24606;51.992;4.198;2024-03-07T06:32:29;15.70;99.90
38854;DHT22;24606;51.992;4.198;2024-03-07T06:37:30;15.70;99.90
38854;DHT22;24606;51.992;4.198;2024-03-07T06:42:32;15.50;99.90
38854;DHT22;24606;51.992;4.198;2024-03-07T06:47:36;15.50;99.90
38854;DHT22;24606;51.992;4.198;2024-03-07T06:52:37;15.50;99.90
38854;DHT22;24606;51.992;4.198;2024-03-07T06:57:39;15.50;99.90
38854;DHT22;24606;51.992;4.198;2024-03-07T07:02:43;15.50;99.90
38854;DHT22;24606;51.992;4.198;2024-03-07T07:07:45;15.60;99.90
38854;DHT22;24606;51.992;4.198;2024-03-07T07:12:47;15.80;99.90
38854;DHT22;24606;51.992;4.198;2024-03-07T07:17:51;15.70;99.90
38854;DHT22;24606;51.992;4.198;2024-03-07T07:22:53;16.10;99.90
38854;DHT22;24606;51.992;4.198;2024-03-07T07:27:56;15.90;99.90
38854;DHT22;24606;51.992;4.198;2024-03-07T07:32:59;16.00;99.90
38854;DHT22;24606;51.992;4.198;2024-03-07T07:38:01;16.00;99.90
38854;DHT22;24606;51.992;4.198;2024-03-07T07:43:04;16.00;99.90
38854;DHT22;24606;51.992;4.198;2024-03-07T07:48:08;16.10;99.90
38854;DHT22;24606;51.992;4.198;2024-03-07T07:53:12;16.20;99.90
38854;DHT22;24606;51.992;4.198;2024-03-07T07:58:14;16.10;99.90
38854;DHT22;24606;51.992;4.198;2024-03-07T08:03:18;16.20;99.90
38854;DHT22;24606;51.992;4.198;2024-03-07T08:08:21;16.40;99.90
38854;DHT22;24606;51.992;4.198;2024-03-07T08:13:23;16.20;99.90
38854;DHT22;24606;51.992;4.198;2024-03-07T08:18:28;16.30;99.90
38854;DHT22;24606;51.992;4.198;2024-03-07T08:23:30;16.10;99.90
38854;DHT22;24606;51.992;4.198;2024-03-07T08:28:32;16.20;99.90
38854;DHT22;24606;51.992;4.198;2024-03-07T08:33:36;16.30;99.90
38854;DHT22;24606;51.992;4.198;2024-03-07T08:38:38;16.10;99.90
38854;DHT22;24606;51.992;4.198;2024-03-07T08:43:40;16.10;99.90
38854;DHT22;24606;51.992;4.198;2024-03-07T08:48:43;16.10;99.90
38854;DHT22;24606;51.992;4.198;2024-03-07T08:53:45;16.30;99.90
38854;DHT22;24606;51.992;4.198;2024-03-07T08:58:48;16.20;99.90
38854;DHT22;24606;51.992;4.198;2024-03-07T09:03:51;16.40;99.90
38854;DHT22;24606;51.992;4.198;2024-03-07T09:08:53;16.20;99.90
38854;DHT22;24606;51.992;4.198;2024-03-07T09:13:55;16.20;99.90
38854;DHT22;24606;51.992;4.198;2024-03-07T09:18:58;16.20;99.90
38854;DHT22;24606;51.992;4.198;2024-03-07T09:24:00;16.70;99.90
38854;DHT22;24606;51.992;4.198;2024-03-07T09:29:03;16.60;99.90
38854;DHT22;24606;51.992;4.198;2024-03-07T09:34:08;16.60;99.90
38854;DHT22;24606;51.992;4.198;2024-03-07T09:39:10;17.50;99.90
38854;DHT22;24606;51.992;4.198;2024-03-07T09:44:15;17.90;99.90
38854;DHT22;24606;51.992;4.198;2024-03-07T09:49:24;17.90;99.90
38854;DHT22;24606;51.992;4.198;2024-03-07T09:54:27;18.10;99.90
38854;DHT22;24606;51.992;4.198;2024-03-07T09:59:34;18.20;99.90
38854;DHT22;24606;51.992;4.198;2024-03-07T10:04:42;18.20;99.90
38854;DHT22;24606;51.992;4.198;2024-03-07T10:09:53;18.20;99.90
38854;DHT22;24606;51.992;4.198;2024-03-07T10:15:03;18.40;99.90
38854;DHT22;24606;51.992;4.198;2024-03-07T10:20:08;18.20;99.90
38854;DHT22;24606;51.992;4.198;2024-03-07T10:25:16;17.90;99.90
38854;DHT22;24606;51.992;4.198;2024-03-07T10:30:18;17.30;99.90
38854;DHT22;24606;51.992;4.198;2024-03-07T10:35:24;17.10;99.90
38854;DHT22;24606;51.992;4.198;2024-03-07T10:40:26;17.50;99.90
38854;DHT22;24606;51.992;4.198;2024-03-07T10:45:29;16.90;99.90
38854;DHT22;24606;51.992;4.198;2024-03-07T10:50:43;17.20;99.90
38854;DHT22;24606;51.992;4.198;2024-03-07T10:55:58;17.40;99.90
38854;DHT22;24606;51.992;4.198;2024-03-07T11:01:07;17.40;99.90
38854;DHT22;24606;51.992;4.198;2024-03-07T11:06:14;17.10;96.10
38854;DHT22;24606;51.992;4.198;2024-03-07T11:11:18;17.40;99.90
38854;DHT22;24606;51.992;4.198;2024-03-07T11:16:21;17.10;99.90
38854;DHT22;24606;51.992;4.198;2024-03-07T11:21:47;17.20;99.90
38854;DHT22;24606;51.992;4.198;2024-03-07T11:26:51;17.40;99.90
38854;DHT22;24606;51.992;4.198;2024-03-07T11:31:55;17.20;99.90
38854;DHT22;24606;51.992;4.198;2024-03-07T11:36:58;16.90;99.90
38854;DHT22;24606;51.992;4.198;2024-03-07T11:42:01;17.20;99.90
38854;DHT22;24606;51.992;4.198;2024-03-07T11:47:08;17.80;99.90
38854;DHT22;24606;51.992;4.198;2024-03-07T11:52:13;17.60;99.90
38854;DHT22;24606;51.992;4.198;2024-03-07T11:57:18;17.50;99.90
38854;DHT22;24606;51.992;4.198;2024-03-07T12:02:27;17.30;99.90
38854;DHT22;24606;51.992;4.198;2024-03-07T12:07:31;17.10;99.90
38854;DHT22;24606;51.992;4.198;2024-03-07T12:12:34;17.40;99.90
38854;DHT22;24606;51.992;4.198;2024-03-07T12:17:39;17.30;99.90
38854;DHT22;24606;51.992;4.198;2024-03-07T12:22:43;18.40;99.90
38854;DHT22;24606;51.992;4.198;2024-03-07T12:27:46;18.00;98.30
38854;DHT22;24606;51.992;4.198;2024-03-07T12:32:49;17.90;98.00
38854;DHT22;24606;51.992;4.198;2024-03-07T12:37:56;18.00;96.90
38854;DHT22;24606;51.992;4.198;2024-03-07T12:42:58;17.80;99.50
38854;DHT22;24606;51.992;4.198;2024-03-07T12:48:01;18.20;99.90
38854;DHT22;24606;51.992;4.198;2024-03-07T12:53:06;18.60;99.30
38854;DHT22;24606;51.992;4.198;2024-03-07T12:58:12;18.60;99.90
38854;DHT22;24606;51.992;4.198;2024-03-07T13:03:15;18.40;97.70
38854;DHT22;24606;51.992;4.198;2024-03-07T13:08:19;18.60;98.10
38854;DHT22;24606;51.992;4.198;2024-03-07T13:13:26;18.70;97.20
38854;DHT22;24606;51.992;4.198;2024-03-07T13:18:28;18.90;97.80
38854;DHT22;24606;51.992;4.198;2024-03-07T13:23:35;19.10;98.70
38854;DHT22;24606;51.992;4.198;2024-03-07T13:28:40;19.20;98.80
38854;DHT22;24606;51.992;4.198;2024-03-07T13:33:42;19.20;95.50
38854;DHT22;24606;51.992;4.198;2024-03-07T13:38:45;19.70;92.90
38854;DHT22;24606;51.992;4.198;2024-03-07T13:43:48;20.00;97.30
38854;DHT22;24606;51.992;4.198;2024-03-07T13:48:50;19.90;93.60
38854;DHT22;24606;51.992;4.198;2024-03-07T13:53:54;20.20;96.90
38854;DHT22;24606;51.992;4.198;2024-03-07T14:05:27;20.60;97.20
38854;DHT22;24606;51.992;4.198;2024-03-07T14:11:01;21.00;90.40
38854;DHT22;24606;51.992;4.198;2024-03-07T14:16:52;21.10;89.70
38854;DHT22;24606;51.992;4.198;2024-03-07T14:22:16;21.30;93.50
38854;DHT22;24606;51.992;4.198;2024-03-07T14:27:32;21.60;91.90
38854;DHT22;24606;51.992;4.198;2024-03-07T14:32:37;21.60;93.70
38854;DHT22;24606;51.992;4.198;2024-03-07T14:37:46;22.00;94.40
38854;DHT22;24606;51.992;4.198;2024-03-07T14:42:55;22.30;94.70
38854;DHT22;24606;51.992;4.198;2024-03-07T14:47:58;22.50;94.20
38854;DHT22;24606;51.992;4.198;2024-03-07T14:53:01;22.30;85.50
38854;DHT22;24606;51.992;4.198;2024-03-07T14:58:06;22.30;94.00
38854;DHT22;24606;51.992;4.198;2024-03-07T15:03:12;22.20;95.30
38854;DHT22;24606;51.992;4.198;2024-03-07T15:08:15;22.30;96.10
38854;DHT22;24606;51.992;4.198;2024-03-07T15:13:19;22.60;96.30
38854;DHT22;24606;51.992;4.198;2024-03-07T15:18:22;22.50;89.60
38854;DHT22;24606;51.992;4.198;2024-03-07T15:23:24;22.20;93.10
38854;DHT22;24606;51.992;4.198;2024-03-07T15:28:27;22.50;96.40
38854;DHT22;24606;51.992;4.198;2024-03-07T15:33:30;22.20;95.50
38854;DHT22;24606;51.992;4.198;2024-03-07T15:38:32;22.10;93.90
38854;DHT22;24606;51.992;4.198;2024-03-07T15:43:40;22.10;97.40
38854;DHT22;24606;51.992;4.198;2024-03-07T15:48:44;22.10;97.40
38854;DHT22;24606;51.992;4.198;2024-03-07T15:53:48;22.20;94.40
38854;DHT22;24606;51.992;4.198;2024-03-07T15:58:52;22.10;95.40
38854;DHT22;24606;51.992;4.198;2024-03-07T16:03:54;21.80;92.50
38854;DHT22;24606;51.992;4.198;2024-03-07T16:08:56;21.60;96.10
38854;DHT22;24606;51.992;4.198;2024-03-07T16:14:00;21.50;93.70
38854;DHT22;24606;51.992;4.198;2024-03-07T16:19:02;21.70;94.70
38854;DHT22;24606;51.992;4.198;2024-03-07T16:24:06;21.50;96.30
38854;DHT22;24606;51.992;4.198;2024-03-07T16:29:10;21.30;95.00
38854;DHT22;24606;51.992;4.198;2024-03-07T16:34:12;21.50;97.40
38854;DHT22;24606;51.992;4.198;2024-03-07T16:39:14;21.50;96.60
38854;DHT22;24606;51.992;4.198;2024-03-07T16:44:17;21.60;98.10
38854;DHT22;24606;51.992;4.198;2024-03-07T16:49:23;21.50;98.10
38854;DHT22;24606;51.992;4.198;2024-03-07T16:54:27;21.40;99.30
38854;DHT22;24606;51.992;4.198;2024-03-07T16:59:30;21.40;99.10
38854;DHT22;24606;51.992;4.198;2024-03-07T17:04:34;21.60;98.40
38854;DHT22;24606;51.992;4.198;2024-03-07T17:09:36;21.50;98.10
38854;DHT22;24606;51.992;4.198;2024-03-07T17:14:43;21.40;98.60
38854;DHT22;24606;51.992;4.198;2024-03-07T17:19:47;21.20;99.90
38854;DHT22;24606;51.992;4.198;2024-03-07T17:24:49;20.10;99.90
38854;DHT22;24606;51.992;4.198;2024-03-07T17:29:52;20.80;99.90
38854;DHT22;24606;51.992;4.198;2024-03-07T17:34:54;20.50;99.90
38854;DHT22;24606;51.992;4.198;2024-03-07T17:39:56;20.90;99.60
38854;DHT22;24606;51.992;4.198;2024-03-07T17:45:00;20.80;99.90
38854;DHT22;24606;51.992;4.198;2024-03-07T17:50:02;20.80;99.90
38854;DHT22;24606;51.992;4.198;2024-03-07T17:55:04;20.70;98.10
38854;DHT22;24606;51.992;4.198;2024-03-07T18:00:11;20.60;99.70
38854;DHT22;24606;51.992;4.198;2024-03-07T18:05:17;20.50;99.70
38854;DHT22;24606;51.992;4.198;2024-03-07T18:10:19;20.40;99.90
38854;DHT22;24606;51.992;4.198;2024-03-07T18:15:24;19.90;99.90
38854;DHT22;24606;51.992;4.198;2024-03-07T18:20:28;19.70;99.90
38854;DHT22;24606;51.992;4.198;2024-03-07T18:25:30;19.40;99.90
38854;DHT22;24606;51.992;4.198;2024-03-07T18:30:37;19.20;99.90
38854;DHT22;24606;51.992;4.198;2024-03-07T18:35:39;19.10;99.90
38854;DHT22;24606;51.992;4.198;2024-03-07T18:40:43;19.10;99.90
38854;DHT22;24606;51.992;4.198;2024-03-07T18:45:47;19.00;99.90
38854;DHT22;24606;51.992;4.198;2024-03-07T18:50:51;18.70;99.90
38854;DHT22;24606;51.992;4.198;2024-03-07T18:55:54;18.80;99.90
38854;DHT22;24606;51.992;4.198;2024-03-07T19:00:58;19.20;99.90
38854;DHT22;24606;51.992;4.198;2024-03-07T19:06:05;19.20;99.90
38854;DHT22;24606;51.992;4.198;2024-03-07T19:11:09;19.20;99.90
38854;DHT22;24606;51.992;4.198;2024-03-07T19:16:14;19.30;99.90
38854;DHT22;24606;51.992;4.198;2024-03-07T19:21:18;19.10;99.90
38854;DHT22;24606;51.992;4.198;2024-03-07T19:26:21;19.20;99.90
38854;DHT22;24606;51.992;4.198;2024-03-07T19:31:24;19.00;99.90
38854;DHT22;24606;51.992;4.198;2024-03-07T19:36:26;19.10;99.90
38854;DHT22;24606;51.992;4.198;2024-03-07T19:41:28;18.80;99.90
38854;DHT22;24606;51.992;4.198;2024-03-07T19:46:33;18.90;99.90
38854;DHT22;24606;51.992;4.198;2024-03-07T19:51:35;18.70;99.90
38854;DHT22;24606;51.992;4.198;2024-03-07T19:56:37;18.80;99.90
38854;DHT22;24606;51.992;4.198;2024-03-07T20:01:42;18.90;99.90
38854;DHT22;24606;51.992;4.198;2024-03-07T20:06:44;18.70;99.90
38854;DHT22;24606;51.992;4.198;2024-03-07T20:11:47;18.50;99.90
38854;DHT22;24606;51.992;4.198;2024-03-07T20:16:51;18.40;99.90
38854;DHT22;24606;51.992;4.198;2024-03-07T20:21:55;18.40;99.90
38854;DHT22;24606;51.992;4.198;2024-03-07T20:26:58;18.40;99.90
38854;DHT22;24606;51.992;4.198;2024-03-07T20:32:02;18.30;99.90
38854;DHT22;24606;51.992;4.198;2024-03-07T20:37:06;18.30;99.90
38854;DHT22;24606;51.992;4.198;2024-03-07T20:42:10;18.20;99.90
38854;DHT22;24606;51.992;4.198;2024-03-07T20:47:13;18.00;99.90
38854;DHT22;24606;51.992;4.198;2024-03-07T20:52:16;18.10;99.90
38854;DHT22;24606;51.992;4.198;2024-03-07T20:57:18;17.00;99.90
38854;DHT22;24606;51.992;4.198;2024-03-07T21:02:22;16.50;99.90
38854;DHT22;24606;51.992;4.198;2024-03-07T21:07:25;16.80;99.90
38854;DHT22;24606;51.992;4.198;2024-03-07T21:12:27;16.90;99.90
38854;DHT22;24606;51.992;4.198;2024-03-07T21:17:30;16.90;99.90
38854;DHT22;24606;51.992;4.198;2024-03-07T21:22:32;16.50;99.90
38854;DHT22;24606;51.992;4.198;2024-03-07T21:27:35;17.30;99.90
38854;DHT22;24606;51.992;4.198;2024-03-07T21:32:40;17.40;99.90
38854;DHT22;24606;51.992;4.198;2024-03-07T21:37:42;17.50;99.90
38854;DHT22;24606;51.992;4.198;2024-03-07T21:42:44;17.70;99.90
38854;DHT22;24606;51.992;4.198;2024-03-07T21:47:49;17.50;99.90
38854;DHT22;24606;51.992;4.198;2024-03-07T21:52:52;17.40;99.90
38854;DHT22;24606;51.992;4.198;2024-03-07T21:57:55;17.50;99.90
38854;DHT22;24606;51.992;4.198;2024-03-07T22:02:59;17.40;99.90
38854;DHT22;24606;51.992;4.198;2024-03-07T22:08:01;17.30;99.90
38854;DHT22;24606;51.992;4.198;2024-03-07T22:13:05;17.30;99.90
38854;DHT22;24606;51.992;4.198;2024-03-07T22:18:08;17.30;99.90
38854;DHT22;24606;51.992;4.198;2024-03-07T22:23:10;17.20;99.90
38854;DHT22;24606;51.992;4.198;2024-03-07T22:28:12;17.20;99.90
38854;DHT22;24606;51.992;4.198;2024-03-07T22:33:15;17.10;99.90
38854;DHT22;24606;51.992;4.198;2024-03-07T22:38:18;17.20;99.90
38854;DHT22;24606;51.992;4.198;2024-03-07T22:43:22;17.10;99.90
38854;DHT22;24606;51.992;4.198;2024-03-07T22:48:25;17.00;99.90
38854;DHT22;24606;51.992;4.198;2024-03-07T22:53:29;16.80;99.90
38854;DHT22;24606;51.992;4.198;2024-03-07T22:58:31;16.90;99.90
38854;DHT22;24606;51.992;4.198;2024-03-07T23:03:34;16.80;99.90
38854;DHT22;24606;51.992;4.198;2024-03-07T23:08:39;16.60;99.90
38854;DHT22;24606;51.992;4.198;2024-03-07T23:13:41;16.70;99.90
38854;DHT22;24606;51.992;4.198;2024-03-07T23:18:45;16.60;99.90
38854;DHT22;24606;51.992;4.198;2024-03-07T23:23:47;16.60;99.90
38854;DHT22;24606;51.992;4.198;2024-03-07T23:28:49;16.60;99.90
38854;DHT22;24606;51.992;4.198;2024-03-07T23:33:53;16.50;99.90
38854;DHT22;24606;51.992;4.198;2024-03-07T23:39:00;16.60;99.90
38854;DHT22;24606;51.992;4.198;2024-03-07T23:44:01;16.40;99.90
38854;DHT22;24606;51.992;4.198;2024-03-07T23:49:05;16.40;99.90
38854;DHT22;24606;51.992;4.198;2024-03-07T23:54:07;16.50;99.90
38854;DHT22;24606;51.992;4.198;2024-03-07T23:59:09;16.30;99.90
